ADDS METAR Data INFO
IDs: Format: Raw Decoded Include TAF

Data at: 1040 UTC 19 Oct 2017

KCBF 191035Z AUTO 08004KT 10SM CLR 10/09 A3006 RMK AO2
KCBF 191015Z AUTO 04005KT 10SM CLR 08/08 A3005 RMK AO2
KCBF 190955Z AUTO 07004KT 10SM CLR 09/09 A3004 RMK AO2
KCBF 190935Z AUTO 06003KT 10SM CLR 09/09 A3004 RMK AO2
KCBF 190915Z AUTO 08005KT 10SM CLR 10/10 A3004 RMK AO2
KCBF 190855Z AUTO 05004KT 10SM CLR 10/09 A3005 RMK AO2
KCBF 190835Z AUTO 00000KT 10SM CLR 10/09 A3005 RMK AO2
KCBF 190815Z AUTO 12003KT 10SM CLR 12/09 A3005 RMK AO2
KCBF 190755Z AUTO 11004KT 10SM CLR 12/09 A3005 RMK AO2
KCBF 190735Z AUTO 11005KT 10SM CLR 13/09 A3004 RMK AO2
KCBF 190715Z AUTO 11005KT 10SM CLR 13/09 A3004 RMK AO2
KCBF 190655Z AUTO 09004KT 10SM CLR 12/09 A3004 RMK AO2
KCBF 190635Z AUTO 00000KT 10SM CLR 13/09 A3004 RMK AO2
KCBF 190615Z AUTO 09005KT 10SM CLR 12/09 A3003 RMK AO2
KCBF 190555Z AUTO 06004KT 10SM CLR 13/09 A3004 RMK AO2
KCBF 190535Z AUTO 07005KT 10SM CLR 12/09 A3004 RMK AO2
KCBF 190515Z AUTO 05005KT 10SM CLR 13/09 A3004 RMK AO2
KCBF 190455Z AUTO 05005KT 10SM CLR 13/09 A3004 RMK AO2
KCBF 190435Z AUTO 08004KT 10SM CLR 15/09 A3004 RMK AO2
KCBF 190415Z AUTO 09005KT 10SM CLR 16/09 A3004 RMK AO2
KCBF 190355Z AUTO 06007KT 10SM CLR 14/09 A3004 RMK AO2
KCBF 190335Z AUTO 6.54166707KT 10SM CLR 15/09 A3004 RMK AO2
KCBF 190315Z AUTO 05006KT 10SM CLR 15/09 A3004 RMK AO2
KCBF 190255Z AUTO 04007KT 10SM CLR 15/09 A3003 RMK AO2
KCBF 190235Z AUTO 03007KT 10SM CLR 15/10 A3003 RMK AO2
KCBF 190215Z AUTO 05008KT 10SM CLR 16/10 A3003 RMK AO2
KCBF 190155Z AUTO 03006KT 10SM CLR 16/10 A3002 RMK AO2
KCBF 190135Z AUTO 04007KT 10SM CLR 16/10 A3002 RMK AO2
KCBF 190115Z AUTO 03006KT 10SM CLR 17/10 A3002 RMK AO2
KCBF 190055Z AUTO 02006KT 10SM CLR 18/11 A3001 RMK AO2
KCBF 190035Z AUTO 34004KT 10SM CLR 20/11 A3000 RMK AO2
KCBF 190015Z AUTO 00000KT 10SM CLR 20/10 A2999 RMK AO2
KCBF 182355Z AUTO 00000KT 10SM CLR 21/10 A2998 RMK AO2
KCBF 182335Z AUTO 00000KT 10SM CLR 21/10 A2997 RMK AO2
KCBF 182315Z AUTO 20003KT 10SM CLR 22/10 A2996 RMK AO2
KCBF 182255Z AUTO 20004KT 10SM CLR 23/10 A2995 RMK AO2
KCBF 182235Z AUTO 20003KT 10SM CLR 23/11 A2995 RMK AO2
KCBF 182215Z AUTO 22006KT 10SM CLR 23/11 A2994 RMK AO2
KCBF 182155Z AUTO 21006KT 10SM CLR 23/11 A2994 RMK AO2
KCBF 182135Z AUTO 20006KT 10SM CLR 23/11 A2993 RMK AO2
KCBF 182115Z AUTO 21007KT 10SM CLR 23/11 A2993 RMK AO2
KCBF 182055Z AUTO 22007G14KT 10SM CLR 23/11 A2993 RMK AO2
KCBF 182035Z AUTO 23009G14KT 10SM CLR 23/10 A2993 RMK AO2
KCBF 182015Z AUTO 21008G14KT 10SM CLR 23/11 A2992 RMK AO2
KCBF 181955Z AUTO 21010KT 10SM CLR 23/10 A2992 RMK AO2
KCBF 181935Z AUTO 21012KT 10SM CLR 22/10 A2992 RMK AO2
KCBF 181915Z AUTO 23008G15KT 10SM CLR 22/11 A2993 RMK AO2
KCBF 181855Z AUTO 20009KT 10SM CLR 21/10 A2993 RMK AO2
KCBF 181835Z AUTO 17008KT 10SM CLR 21/10 A2993 RMK AO2
KCBF 181815Z AUTO 20011KT 10SM CLR 21/11 A2993 RMK AO2
KCBF 181755Z AUTO 21012KT 10SM CLR 20/10 A2992 RMK AO2
KCBF 181735Z AUTO 19010G16KT 10SM CLR 19/10 A2992 RMK AO2
KCBF 181715Z AUTO 20011G17KT 10SM CLR 19/11 A2992 RMK AO2
KCBF 181655Z AUTO 18013G19KT 10SM CLR 18/10 A2992 RMK AO2
KCBF 181635Z AUTO 19014KT 10SM CLR 17/10 A2992 RMK AO2
KCBF 181615Z AUTO 21012G18KT 10SM CLR 17/10 A2993 RMK AO2
KCBF 181555Z AUTO 21013KT 10SM CLR 16/10 A2994 RMK AO2
KCBF 181535Z AUTO 20010G17KT 10SM CLR 15/10 A2994 RMK AO2
KCBF 181515Z AUTO 20010G16KT 10SM CLR 14/10 A2994 RMK AO2
KCBF 181455Z AUTO 20012G18KT 10SM CLR 14/09 A2993 RMK AO2
KCBF 181435Z AUTO 19012G17KT 10SM CLR 14/09 A2993 RMK AO2
KCBF 181415Z AUTO 18013KT 10SM CLR 13/09 A2993 RMK AO2
KCBF 181355Z AUTO 19011KT 10SM CLR 12/09 A2994 RMK AO2
KCBF 181335Z AUTO 19008KT 10SM CLR 12/09 A2994 RMK AO2
KCBF 181315Z AUTO 17009KT 10SM CLR 11/09 A2994 RMK AO2
KCBF 181255Z AUTO 18009KT 10SM CLR 10/09 A2993 RMK AO2
KCBF 181235Z AUTO 18008KT 10SM CLR 10/09 A2994 RMK AO2
KCBF 181215Z AUTO 18009KT 10SM CLR 10/09 A2995 RMK AO2
KCBF 181155Z AUTO 18009KT 10SM CLR 11/09 A2995 RMK AO2
KCBF 181135Z AUTO 18009KT 10SM CLR 10/09 A2995 RMK AO2
KCBF 181115Z AUTO 18008KT 10SM CLR 11/09 A2995 RMK AO2
KCBF 181055Z AUTO 18007KT 10SM CLR 11/09 A2995 RMK AO2
KCBF 181035Z AUTO 19008KT 10SM CLR 11/09 A2994 RMK AO2
KCBF 181015Z AUTO 18009G14KT 10SM CLR 12/09 A2994 RMK AO2
KCBF 180955Z AUTO 19010KT 10SM CLR 12/09 A2994 RMK AO2
KCBF 180935Z AUTO 20010KT 10SM CLR 12/09 A2994 RMK AO2
KCBF 180915Z AUTO 19009G16KT 10SM CLR 13/09 A2994 RMK AO2
KCBF 180855Z AUTO 19010G16KT 10SM CLR 13/09 A2994 RMK AO2
KCBF 180835Z AUTO 19011G16KT 10SM CLR 13/09 A2994 RMK AO2
KCBF 180815Z AUTO 20011KT 10SM CLR 13/09 A2995 RMK AO2
KCBF 180755Z AUTO 20012KT 10SM CLR 14/09 A2996 RMK AO2
KCBF 180735Z AUTO 20011KT 10SM CLR 14/09 A2996 RMK AO2
KCBF 180715Z AUTO 20010KT 10SM CLR 14/09 A2996 RMK AO2
KCBF 180655Z AUTO 20011KT 10SM CLR 14/09 A2996 RMK AO2
KCBF 180635Z AUTO 19009KT 10SM CLR 13/10 A2997 RMK AO2
KCBF 180615Z AUTO 16007KT 10SM CLR 12/09 A2997 RMK AO2
KCBF 180555Z AUTO 18006KT 10SM CLR 12/09 A2998 RMK AO2
KCBF 180535Z AUTO 16007KT 10SM CLR 12/09 A2998 RMK AO2
KCBF 180515Z AUTO 16007KT 10SM CLR 12/09 A2998 RMK AO2
KCBF 180455Z AUTO 16008KT 10SM CLR 12/10 A2999 RMK AO2
KCBF 180435Z AUTO 16008KT 10SM CLR 12/09 A3000 RMK AO2
KCBF 180415Z AUTO 16010KT 10SM CLR 13/09 A3000 RMK AO2
KCBF 180355Z AUTO 16009KT 10SM CLR 12/09 A3000 RMK AO2
KCBF 180335Z AUTO 18008KT 10SM CLR 14/09 A3000 RMK AO2
KCBF 180315Z AUTO 17007KT 10SM CLR 13/09 A3000 RMK AO2
KCBF 180255Z AUTO 14006KT 10SM CLR 14/09 A3000 RMK AO2
KCBF 180235Z AUTO 17007KT 10SM CLR 15/08 A3000 RMK AO2
KCBF 180215Z AUTO 16007KT 10SM CLR 14/09 A3000 RMK AO2
KCBF 180155Z AUTO 17006KT 10SM CLR 15/08 A3001 RMK AO2
KCBF 180135Z AUTO 17006KT 10SM CLR 16/08 A3001 RMK AO2
KCBF 180115Z AUTO 17006KT 10SM CLR 16/08 A3001 RMK AO2
KCBF 180055Z AUTO 17007KT 10SM CLR 17/08 A3001 RMK AO2
KCBF 180035Z AUTO 18007KT 10SM CLR 17/08 A3001 RMK AO2
KCBF 180015Z AUTO 17005KT 10SM CLR 18/08 A3000 RMK AO2
KCBF 172355Z AUTO 16005KT 10SM CLR 18/08 A3000 RMK AO2
KCBF 172335Z AUTO 17005KT 10SM CLR 19/08 A3000 RMK AO2
KCBF 172315Z AUTO 19006KT 10SM CLR 19/08 A3000 RMK AO2
KCBF 172255Z AUTO 20007KT 10SM CLR 20/09 A3000 RMK AO2